sensor_id;sensor_type;location;lat;lon;timestamp;P1;durP1;ratioP1;P2;durP2;ratioP2
8526;SDS011;4301;48.362;8.478;2022-10-16T00:00:47;2.00;;;1.87;;
8526;SDS011;4301;48.362;8.478;2022-10-16T00:03:14;2.00;;;1.80;;
8526;SDS011;4301;48.362;8.478;2022-10-16T00:05:41;1.57;;;1.50;;
8526;SDS011;4301;48.362;8.478;2022-10-16T00:08:10;1.70;;;1.60;;
8526;SDS011;4301;48.362;8.478;2022-10-16T00:10:39;1.47;;;1.40;;
8526;SDS011;4301;48.362;8.478;2022-10-16T00:13:07;1.70;;;1.60;;
8526;SDS011;4301;48.362;8.478;2022-10-16T00:15:34;1.90;;;1.73;;
8526;SDS011;4301;48.362;8.478;2022-10-16T00:18:02;1.90;;;1.70;;
8526;SDS011;4301;48.362;8.478;2022-10-16T00:20:30;1.80;;;1.47;;
8526;SDS011;4301;48.362;8.478;2022-10-16T00:22:59;3.87;;;1.67;;
8526;SDS011;4301;48.362;8.478;2022-10-16T00:25:26;2.70;;;1.63;;
8526;SDS011;4301;48.362;8.478;2022-10-16T00:27:54;2.20;;;1.53;;
8526;SDS011;4301;48.362;8.478;2022-10-16T00:30:21;1.63;;;1.53;;
8526;SDS011;4301;48.362;8.478;2022-10-16T00:32:48;5.80;;;2.17;;
8526;SDS011;4301;48.362;8.478;2022-10-16T00:35:15;3.50;;;2.00;;
8526;SDS011;4301;48.362;8.478;2022-10-16T00:37:42;3.03;;;1.50;;
8526;SDS011;4301;48.362;8.478;2022-10-16T00:40:09;1.60;;;1.50;;
8526;SDS011;4301;48.362;8.478;2022-10-16T00:42:36;1.40;;;1.30;;
8526;SDS011;4301;48.362;8.478;2022-10-16T00:45:05;1.37;;;1.30;;
8526;SDS011;4301;48.362;8.478;2022-10-16T00:47:35;3.00;;;1.50;;
8526;SDS011;4301;48.362;8.478;2022-10-16T00:50:05;1.80;;;1.70;;
8526;SDS011;4301;48.362;8.478;2022-10-16T00:52:35;3.40;;;1.80;;
8526;SDS011;4301;48.362;8.478;2022-10-16T00:55:05;3.07;;;1.90;;
8526;SDS011;4301;48.362;8.478;2022-10-16T00:57:34;3.67;;;1.87;;
8526;SDS011;4301;48.362;8.478;2022-10-16T01:00:02;2.63;;;2.20;;
8526;SDS011;4301;48.362;8.478;2022-10-16T01:02:33;2.43;;;2.00;;
8526;SDS011;4301;48.362;8.478;2022-10-16T01:05:01;2.33;;;2.10;;
8526;SDS011;4301;48.362;8.478;2022-10-16T01:07:30;2.67;;;2.20;;
8526;SDS011;4301;48.362;8.478;2022-10-16T01:10:09;4.03;;;2.00;;
8526;SDS011;4301;48.362;8.478;2022-10-16T01:12:45;1.80;;;1.70;;
8526;SDS011;4301;48.362;8.478;2022-10-16T01:15:20;3.77;;;2.50;;
8526;SDS011;4301;48.362;8.478;2022-10-16T01:17:56;2.23;;;2.03;;
8526;SDS011;4301;48.362;8.478;2022-10-16T01:20:27;2.67;;;2.47;;
8526;SDS011;4301;48.362;8.478;2022-10-16T01:23:04;2.63;;;2.20;;
8526;SDS011;4301;48.362;8.478;2022-10-16T01:25:37;4.43;;;2.13;;
8526;SDS011;4301;48.362;8.478;2022-10-16T01:28:17;2.13;;;1.83;;
8526;SDS011;4301;48.362;8.478;2022-10-16T01:30:48;1.90;;;1.80;;
8526;SDS011;4301;48.362;8.478;2022-10-16T01:33:20;1.77;;;1.50;;
8526;SDS011;4301;48.362;8.478;2022-10-16T01:35:51;6.50;;;1.60;;
8526;SDS011;4301;48.362;8.478;2022-10-16T01:38:21;1.70;;;1.60;;
8526;SDS011;4301;48.362;8.478;2022-10-16T01:40:55;1.73;;;1.40;;
8526;SDS011;4301;48.362;8.478;2022-10-16T01:43:28;2.87;;;1.70;;
8526;SDS011;4301;48.362;8.478;2022-10-16T01:46:01;2.20;;;1.60;;
8526;SDS011;4301;48.362;8.478;2022-10-16T01:48:29;3.97;;;2.10;;
8526;SDS011;4301;48.362;8.478;2022-10-16T01:50:59;2.17;;;2.07;;
8526;SDS011;4301;48.362;8.478;2022-10-16T01:53:29;2.27;;;2.03;;
8526;SDS011;4301;48.362;8.478;2022-10-16T01:55:57;1.93;;;1.83;;
8526;SDS011;4301;48.362;8.478;2022-10-16T01:58:27;2.00;;;1.90;;
8526;SDS011;4301;48.362;8.478;2022-10-16T02:00:59;3.03;;;2.07;;
8526;SDS011;4301;48.362;8.478;2022-10-16T02:03:28;2.13;;;1.90;;
8526;SDS011;4301;48.362;8.478;2022-10-16T02:05:56;2.30;;;2.10;;
8526;SDS011;4301;48.362;8.478;2022-10-16T02:08:26;7.33;;;2.30;;
8526;SDS011;4301;48.362;8.478;2022-10-16T02:10:55;4.03;;;2.30;;
8526;SDS011;4301;48.362;8.478;2022-10-16T02:13:23;2.37;;;2.27;;
8526;SDS011;4301;48.362;8.478;2022-10-16T02:15:54;3.03;;;2.40;;
8526;SDS011;4301;48.362;8.478;2022-10-16T02:18:21;2.53;;;2.00;;
8526;SDS011;4301;48.362;8.478;2022-10-16T02:20:53;4.07;;;2.13;;
8526;SDS011;4301;48.362;8.478;2022-10-16T02:23:24;3.73;;;1.77;;
8526;SDS011;4301;48.362;8.478;2022-10-16T02:25:58;2.30;;;2.10;;
8526;SDS011;4301;48.362;8.478;2022-10-16T02:28:28;5.67;;;2.13;;
8526;SDS011;4301;48.362;8.478;2022-10-16T02:31:04;2.17;;;2.00;;
8526;SDS011;4301;48.362;8.478;2022-10-16T02:33:35;6.90;;;2.43;;
8526;SDS011;4301;48.362;8.478;2022-10-16T02:36:04;2.57;;;2.00;;
8526;SDS011;4301;48.362;8.478;2022-10-16T02:38:31;2.63;;;1.83;;
8526;SDS011;4301;48.362;8.478;2022-10-16T02:40:59;2.63;;;1.93;;
8526;SDS011;4301;48.362;8.478;2022-10-16T02:43:26;3.30;;;1.93;;
8526;SDS011;4301;48.362;8.478;2022-10-16T02:45:53;2.27;;;1.87;;
8526;SDS011;4301;48.362;8.478;2022-10-16T02:48:21;3.47;;;1.80;;
8526;SDS011;4301;48.362;8.478;2022-10-16T02:50:48;2.90;;;1.83;;
8526;SDS011;4301;48.362;8.478;2022-10-16T02:53:16;3.00;;;1.90;;
8526;SDS011;4301;48.362;8.478;2022-10-16T02:55:43;4.17;;;1.83;;
8526;SDS011;4301;48.362;8.478;2022-10-16T02:58:09;1.80;;;1.70;;
8526;SDS011;4301;48.362;8.478;2022-10-16T03:00:36;3.80;;;1.57;;
8526;SDS011;4301;48.362;8.478;2022-10-16T03:03:03;3.97;;;1.50;;
8526;SDS011;4301;48.362;8.478;2022-10-16T03:05:32;2.03;;;1.83;;
8526;SDS011;4301;48.362;8.478;2022-10-16T03:07:58;3.20;;;1.93;;
8526;SDS011;4301;48.362;8.478;2022-10-16T03:10:26;3.73;;;1.77;;
8526;SDS011;4301;48.362;8.478;2022-10-16T03:12:53;5.57;;;2.23;;
8526;SDS011;4301;48.362;8.478;2022-10-16T03:15:20;2.27;;;2.07;;
8526;SDS011;4301;48.362;8.478;2022-10-16T03:17:47;2.40;;;2.00;;
8526;SDS011;4301;48.362;8.478;2022-10-16T03:20:14;4.10;;;2.10;;
8526;SDS011;4301;48.362;8.478;2022-10-16T03:22:42;2.20;;;2.10;;
8526;SDS011;4301;48.362;8.478;2022-10-16T03:25:09;3.63;;;2.30;;
8526;SDS011;4301;48.362;8.478;2022-10-16T03:27:36;2.30;;;2.20;;
8526;SDS011;4301;48.362;8.478;2022-10-16T03:30:03;7.13;;;2.20;;
8526;SDS011;4301;48.362;8.478;2022-10-16T03:32:30;2.20;;;2.00;;
8526;SDS011;4301;48.362;8.478;2022-10-16T03:34:57;2.93;;;2.00;;
8526;SDS011;4301;48.362;8.478;2022-10-16T03:37:24;2.10;;;2.00;;
8526;SDS011;4301;48.362;8.478;2022-10-16T03:39:53;2.50;;;2.30;;
8526;SDS011;4301;48.362;8.478;2022-10-16T03:42:20;2.17;;;1.97;;
8526;SDS011;4301;48.362;8.478;2022-10-16T03:44:46;4.33;;;2.23;;
8526;SDS011;4301;48.362;8.478;2022-10-16T03:47:13;2.80;;;2.10;;
8526;SDS011;4301;48.362;8.478;2022-10-16T03:49:40;1.73;;;1.63;;
8526;SDS011;4301;48.362;8.478;2022-10-16T03:52:07;2.33;;;1.90;;
8526;SDS011;4301;48.362;8.478;2022-10-16T03:54:34;3.83;;;2.53;;
8526;SDS011;4301;48.362;8.478;2022-10-16T03:57:03;4.27;;;2.30;;
8526;SDS011;4301;48.362;8.478;2022-10-16T03:59:30;3.10;;;1.90;;
8526;SDS011;4301;48.362;8.478;2022-10-16T04:01:57;2.00;;;1.90;;
8526;SDS011;4301;48.362;8.478;2022-10-16T04:04:24;1.60;;;1.50;;
8526;SDS011;4301;48.362;8.478;2022-10-16T04:06:51;7.33;;;2.00;;
8526;SDS011;4301;48.362;8.478;2022-10-16T04:09:17;1.90;;;1.80;;
8526;SDS011;4301;48.362;8.478;2022-10-16T04:11:44;3.30;;;1.90;;
8526;SDS011;4301;48.362;8.478;2022-10-16T04:14:13;3.73;;;1.77;;
8526;SDS011;4301;48.362;8.478;2022-10-16T04:16:40;4.50;;;1.50;;
8526;SDS011;4301;48.362;8.478;2022-10-16T04:19:07;5.43;;;2.33;;
8526;SDS011;4301;48.362;8.478;2022-10-16T04:21:34;3.63;;;1.80;;
8526;SDS011;4301;48.362;8.478;2022-10-16T04:24:01;2.40;;;1.60;;
8526;SDS011;4301;48.362;8.478;2022-10-16T04:26:29;5.70;;;1.90;;
8526;SDS011;4301;48.362;8.478;2022-10-16T04:28:56;2.80;;;1.70;;
8526;SDS011;4301;48.362;8.478;2022-10-16T04:31:25;1.60;;;1.50;;
8526;SDS011;4301;48.362;8.478;2022-10-16T04:33:52;4.17;;;1.70;;
8526;SDS011;4301;48.362;8.478;2022-10-16T04:36:19;3.73;;;1.60;;
8526;SDS011;4301;48.362;8.478;2022-10-16T04:38:46;2.03;;;1.60;;
8526;SDS011;4301;48.362;8.478;2022-10-16T04:41:12;6.00;;;1.90;;
8526;SDS011;4301;48.362;8.478;2022-10-16T04:43:39;2.00;;;1.77;;
8526;SDS011;4301;48.362;8.478;2022-10-16T04:46:06;2.53;;;1.93;;
8526;SDS011;4301;48.362;8.478;2022-10-16T04:48:36;2.07;;;1.93;;
8526;SDS011;4301;48.362;8.478;2022-10-16T04:51:03;2.50;;;2.30;;
8526;SDS011;4301;48.362;8.478;2022-10-16T04:53:30;5.03;;;1.83;;
8526;SDS011;4301;48.362;8.478;2022-10-16T04:55:58;2.20;;;2.00;;
8526;SDS011;4301;48.362;8.478;2022-10-16T04:58:25;2.20;;;2.10;;
8526;SDS011;4301;48.362;8.478;2022-10-16T05:00:52;2.90;;;2.28;;
8526;SDS011;4301;48.362;8.478;2022-10-16T05:03:19;2.70;;;2.20;;
8526;SDS011;4301;48.362;8.478;2022-10-16T05:05:47;1.80;;;1.70;;
8526;SDS011;4301;48.362;8.478;2022-10-16T05:08:14;2.03;;;1.90;;
8526;SDS011;4301;48.362;8.478;2022-10-16T05:10:42;2.80;;;2.20;;
8526;SDS011;4301;48.362;8.478;2022-10-16T05:13:10;3.23;;;1.97;;
8526;SDS011;4301;48.362;8.478;2022-10-16T05:15:38;3.65;;;2.20;;
8526;SDS011;4301;48.362;8.478;2022-10-16T05:18:05;2.67;;;1.93;;
8526;SDS011;4301;48.362;8.478;2022-10-16T05:20:32;1.73;;;1.67;;
8526;SDS011;4301;48.362;8.478;2022-10-16T05:23:00;2.20;;;2.00;;
8526;SDS011;4301;48.362;8.478;2022-10-16T05:25:27;5.13;;;1.63;;
8526;SDS011;4301;48.362;8.478;2022-10-16T05:27:54;2.37;;;1.80;;
8526;SDS011;4301;48.362;8.478;2022-10-16T05:30:21;5.57;;;1.80;;
8526;SDS011;4301;48.362;8.478;2022-10-16T05:32:48;2.00;;;1.85;;
8526;SDS011;4301;48.362;8.478;2022-10-16T05:35:16;5.30;;;1.97;;
8526;SDS011;4301;48.362;8.478;2022-10-16T05:37:44;2.03;;;1.80;;
8526;SDS011;4301;48.362;8.478;2022-10-16T05:40:12;2.63;;;1.73;;
8526;SDS011;4301;48.362;8.478;2022-10-16T05:42:39;8.50;;;1.80;;
8526;SDS011;4301;48.362;8.478;2022-10-16T05:45:08;4.93;;;2.00;;
8526;SDS011;4301;48.362;8.478;2022-10-16T05:47:37;4.30;;;1.80;;
8526;SDS011;4301;48.362;8.478;2022-10-16T05:50:04;2.67;;;2.00;;
8526;SDS011;4301;48.362;8.478;2022-10-16T05:52:32;2.37;;;2.00;;
8526;SDS011;4301;48.362;8.478;2022-10-16T05:54:59;2.10;;;2.00;;
8526;SDS011;4301;48.362;8.478;2022-10-16T05:57:27;2.97;;;1.90;;
8526;SDS011;4301;48.362;8.478;2022-10-16T05:59:54;2.40;;;1.90;;
8526;SDS011;4301;48.362;8.478;2022-10-16T06:02:22;4.70;;;1.90;;
8526;SDS011;4301;48.362;8.478;2022-10-16T06:04:48;5.20;;;1.90;;
8526;SDS011;4301;48.362;8.478;2022-10-16T06:07:18;2.67;;;1.90;;
8526;SDS011;4301;48.362;8.478;2022-10-16T06:09:47;6.37;;;2.10;;
8526;SDS011;4301;48.362;8.478;2022-10-16T06:12:14;5.40;;;1.90;;
8526;SDS011;4301;48.362;8.478;2022-10-16T06:14:44;3.60;;;2.87;;
8526;SDS011;4301;48.362;8.478;2022-10-16T06:17:11;3.27;;;2.13;;
8526;SDS011;4301;48.362;8.478;2022-10-16T06:19:38;2.50;;;1.90;;
8526;SDS011;4301;48.362;8.478;2022-10-16T06:22:06;2.40;;;2.20;;
8526;SDS011;4301;48.362;8.478;2022-10-16T06:24:33;2.67;;;2.07;;
8526;SDS011;4301;48.362;8.478;2022-10-16T06:27:00;2.70;;;1.83;;
8526;SDS011;4301;48.362;8.478;2022-10-16T06:29:27;5.33;;;1.73;;
8526;SDS011;4301;48.362;8.478;2022-10-16T06:31:55;4.73;;;1.90;;
8526;SDS011;4301;48.362;8.478;2022-10-16T06:34:22;2.83;;;1.80;;
8526;SDS011;4301;48.362;8.478;2022-10-16T06:36:49;5.30;;;2.73;;
8526;SDS011;4301;48.362;8.478;2022-10-16T06:39:16;2.27;;;1.83;;
8526;SDS011;4301;48.362;8.478;2022-10-16T06:41:43;1.67;;;1.50;;
8526;SDS011;4301;48.362;8.478;2022-10-16T06:44:10;1.63;;;1.63;;
8526;SDS011;4301;48.362;8.478;2022-10-16T06:46:37;2.13;;;1.93;;
8526;SDS011;4301;48.362;8.478;2022-10-16T06:49:05;4.33;;;1.80;;
8526;SDS011;4301;48.362;8.478;2022-10-16T06:51:32;1.93;;;1.60;;
8526;SDS011;4301;48.362;8.478;2022-10-16T06:54:01;4.23;;;1.70;;
8526;SDS011;4301;48.362;8.478;2022-10-16T06:56:29;5.17;;;1.60;;
8526;SDS011;4301;48.362;8.478;2022-10-16T06:58:57;1.73;;;1.40;;
8526;SDS011;4301;48.362;8.478;2022-10-16T07:01:25;2.93;;;1.70;;
8526;SDS011;4301;48.362;8.478;2022-10-16T07:03:52;2.93;;;1.40;;
8526;SDS011;4301;48.362;8.478;2022-10-16T07:06:22;2.77;;;1.53;;
8526;SDS011;4301;48.362;8.478;2022-10-16T07:08:50;1.93;;;1.73;;
8526;SDS011;4301;48.362;8.478;2022-10-16T07:11:18;1.67;;;1.57;;
8526;SDS011;4301;48.362;8.478;2022-10-16T07:13:47;3.27;;;1.80;;
8526;SDS011;4301;48.362;8.478;2022-10-16T07:16:16;5.23;;;3.50;;
8526;SDS011;4301;48.362;8.478;2022-10-16T07:18:44;2.70;;;1.90;;
8526;SDS011;4301;48.362;8.478;2022-10-16T07:21:14;1.80;;;1.70;;
8526;SDS011;4301;48.362;8.478;2022-10-16T07:23:43;2.60;;;1.43;;
8526;SDS011;4301;48.362;8.478;2022-10-16T07:26:10;3.97;;;1.90;;
8526;SDS011;4301;48.362;8.478;2022-10-16T07:28:37;4.53;;;1.80;;
8526;SDS011;4301;48.362;8.478;2022-10-16T07:31:05;2.93;;;1.60;;
8526;SDS011;4301;48.362;8.478;2022-10-16T07:33:35;2.90;;;1.90;;
8526;SDS011;4301;48.362;8.478;2022-10-16T07:36:04;2.77;;;2.40;;
8526;SDS011;4301;48.362;8.478;2022-10-16T07:38:32;4.53;;;2.40;;
8526;SDS011;4301;48.362;8.478;2022-10-16T07:41:01;4.00;;;2.53;;
8526;SDS011;4301;48.362;8.478;2022-10-16T07:43:30;4.07;;;1.73;;
8526;SDS011;4301;48.362;8.478;2022-10-16T07:45:57;3.10;;;1.73;;
8526;SDS011;4301;48.362;8.478;2022-10-16T07:48:28;5.83;;;1.90;;
8526;SDS011;4301;48.362;8.478;2022-10-16T07:50:57;2.27;;;1.93;;
8526;SDS011;4301;48.362;8.478;2022-10-16T07:53:24;3.60;;;2.20;;
8526;SDS011;4301;48.362;8.478;2022-10-16T07:55:51;5.63;;;2.73;;
8526;SDS011;4301;48.362;8.478;2022-10-16T07:58:20;3.37;;;3.03;;
8526;SDS011;4301;48.362;8.478;2022-10-16T08:00:47;4.33;;;3.10;;
8526;SDS011;4301;48.362;8.478;2022-10-16T08:03:14;2.30;;;2.20;;
8526;SDS011;4301;48.362;8.478;2022-10-16T08:05:40;2.97;;;2.30;;
8526;SDS011;4301;48.362;8.478;2022-10-16T08:08:10;6.77;;;2.57;;
8526;SDS011;4301;48.362;8.478;2022-10-16T08:10:38;4.10;;;2.53;;
8526;SDS011;4301;48.362;8.478;2022-10-16T08:13:05;2.60;;;2.40;;
8526;SDS011;4301;48.362;8.478;2022-10-16T08:15:34;2.40;;;2.20;;
8526;SDS011;4301;48.362;8.478;2022-10-16T08:18:01;4.10;;;2.47;;
8526;SDS011;4301;48.362;8.478;2022-10-16T08:20:30;2.83;;;2.50;;
8526;SDS011;4301;48.362;8.478;2022-10-16T08:22:58;3.60;;;2.60;;
8526;SDS011;4301;48.362;8.478;2022-10-16T08:25:25;3.70;;;2.20;;
8526;SDS011;4301;48.362;8.478;2022-10-16T08:27:52;3.77;;;2.77;;
8526;SDS011;4301;48.362;8.478;2022-10-16T08:30:20;4.10;;;3.50;;
8526;SDS011;4301;48.362;8.478;2022-10-16T08:32:50;6.10;;;3.80;;
8526;SDS011;4301;48.362;8.478;2022-10-16T08:35:17;5.57;;;4.83;;
8526;SDS011;4301;48.362;8.478;2022-10-16T08:37:44;7.60;;;5.10;;
8526;SDS011;4301;48.362;8.478;2022-10-16T08:40:16;13.27;;;11.07;;
8526;SDS011;4301;48.362;8.478;2022-10-16T08:42:53;14.17;;;11.40;;
8526;SDS011;4301;48.362;8.478;2022-10-16T08:45:41;7.57;;;6.20;;
8526;SDS011;4301;48.362;8.478;2022-10-16T08:48:21;2.87;;;2.60;;
8526;SDS011;4301;48.362;8.478;2022-10-16T08:50:55;5.00;;;2.17;;
8526;SDS011;4301;48.362;8.478;2022-10-16T08:53:23;3.20;;;2.90;;
8526;SDS011;4301;48.362;8.478;2022-10-16T08:55:53;4.23;;;3.90;;
8526;SDS011;4301;48.362;8.478;2022-10-16T08:58:21;5.77;;;3.90;;
8526;SDS011;4301;48.362;8.478;2022-10-16T09:00:50;6.27;;;5.43;;
8526;SDS011;4301;48.362;8.478;2022-10-16T09:03:33;3.57;;;2.17;;
8526;SDS011;4301;48.362;8.478;2022-10-16T09:06:17;3.07;;;2.77;;
8526;SDS011;4301;48.362;8.478;2022-10-16T09:09:00;3.17;;;2.10;;
8526;SDS011;4301;48.362;8.478;2022-10-16T09:11:44;5.13;;;1.90;;
8526;SDS011;4301;48.362;8.478;2022-10-16T09:14:20;2.50;;;1.90;;
8526;SDS011;4301;48.362;8.478;2022-10-16T09:17:04;2.72;;;2.00;;
8526;SDS011;4301;48.362;8.478;2022-10-16T09:19:46;3.20;;;2.30;;
8526;SDS011;4301;48.362;8.478;2022-10-16T09:22:20;3.88;;;2.22;;
8526;SDS011;4301;48.362;8.478;2022-10-16T09:24:51;2.90;;;2.65;;
8526;SDS011;4301;48.362;8.478;2022-10-16T09:27:18;2.13;;;1.92;;
8526;SDS011;4301;48.362;8.478;2022-10-16T09:29:45;3.85;;;3.40;;
8526;SDS011;4301;48.362;8.478;2022-10-16T09:32:12;5.22;;;1.80;;
8526;SDS011;4301;48.362;8.478;2022-10-16T09:34:43;2.03;;;1.45;;
8526;SDS011;4301;48.362;8.478;2022-10-16T09:37:17;3.30;;;2.08;;
8526;SDS011;4301;48.362;8.478;2022-10-16T09:39:46;2.15;;;1.95;;
8526;SDS011;4301;48.362;8.478;2022-10-16T09:42:15;2.15;;;1.77;;
8526;SDS011;4301;48.362;8.478;2022-10-16T09:44:46;2.72;;;1.70;;
8526;SDS011;4301;48.362;8.478;2022-10-16T09:47:15;6.85;;;3.53;;
8526;SDS011;4301;48.362;8.478;2022-10-16T09:49:53;5.15;;;1.60;;
8526;SDS011;4301;48.362;8.478;2022-10-16T09:52:23;3.72;;;1.70;;
8526;SDS011;4301;48.362;8.478;2022-10-16T09:54:51;2.50;;;1.80;;
8526;SDS011;4301;48.362;8.478;2022-10-16T09:57:20;2.15;;;1.73;;
8526;SDS011;4301;48.362;8.478;2022-10-16T09:59:48;1.80;;;1.67;;
8526;SDS011;4301;48.362;8.478;2022-10-16T10:02:16;1.88;;;1.40;;
8526;SDS011;4301;48.362;8.478;2022-10-16T10:04:48;2.10;;;1.50;;
8526;SDS011;4301;48.362;8.478;2022-10-16T10:07:21;3.67;;;2.50;;
8526;SDS011;4301;48.362;8.478;2022-10-16T10:09:52;1.38;;;1.38;;
8526;SDS011;4301;48.362;8.478;2022-10-16T10:12:21;1.70;;;1.60;;
8526;SDS011;4301;48.362;8.478;2022-10-16T10:14:51;4.93;;;1.65;;
8526;SDS011;4301;48.362;8.478;2022-10-16T10:17:19;4.20;;;1.60;;
8526;SDS011;4301;48.362;8.478;2022-10-16T10:19:48;2.45;;;1.50;;
8526;SDS011;4301;48.362;8.478;2022-10-16T10:22:18;5.53;;;1.42;;
8526;SDS011;4301;48.362;8.478;2022-10-16T10:25:00;4.55;;;1.55;;
8526;SDS011;4301;48.362;8.478;2022-10-16T10:28:17;1.33;;;1.30;;
8526;SDS011;4301;48.362;8.478;2022-10-16T10:30:56;1.70;;;1.60;;
8526;SDS011;4301;48.362;8.478;2022-10-16T10:33:28;3.38;;;1.45;;
8526;SDS011;4301;48.362;8.478;2022-10-16T10:36:07;2.42;;;1.30;;
8526;SDS011;4301;48.362;8.478;2022-10-16T10:38:45;1.88;;;1.60;;
8526;SDS011;4301;48.362;8.478;2022-10-16T10:44:21;3.72;;;1.70;;
8526;SDS011;4301;48.362;8.478;2022-10-16T10:46:55;2.65;;;1.50;;
8526;SDS011;4301;48.362;8.478;2022-10-16T10:49:31;1.92;;;1.75;;
8526;SDS011;4301;48.362;8.478;2022-10-16T10:52:11;1.95;;;1.50;;
8526;SDS011;4301;48.362;8.478;2022-10-16T10:54:55;2.60;;;1.70;;
8526;SDS011;4301;48.362;8.478;2022-10-16T10:57:30;1.35;;;1.30;;
8526;SDS011;4301;48.362;8.478;2022-10-16T11:00:10;1.27;;;1.27;;
8526;SDS011;4301;48.362;8.478;2022-10-16T11:02:48;3.33;;;1.40;;
8526;SDS011;4301;48.362;8.478;2022-10-16T11:05:23;1.45;;;1.35;;
8526;SDS011;4301;48.362;8.478;2022-10-16T11:07:56;2.90;;;1.50;;
8526;SDS011;4301;48.362;8.478;2022-10-16T11:10:28;3.42;;;1.40;;
8526;SDS011;4301;48.362;8.478;2022-10-16T11:12:58;1.55;;;1.40;;
8526;SDS011;4301;48.362;8.478;2022-10-16T11:15:37;1.65;;;1.40;;
8526;SDS011;4301;48.362;8.478;2022-10-16T11:18:06;1.48;;;1.40;;
8526;SDS011;4301;48.362;8.478;2022-10-16T11:20:39;1.50;;;1.35;;
8526;SDS011;4301;48.362;8.478;2022-10-16T11:23:10;3.83;;;1.40;;
8526;SDS011;4301;48.362;8.478;2022-10-16T11:25:43;3.15;;;1.50;;
8526;SDS011;4301;48.362;8.478;2022-10-16T11:28:13;3.30;;;1.13;;
8526;SDS011;4301;48.362;8.478;2022-10-16T11:30:44;3.28;;;1.30;;
8526;SDS011;4301;48.362;8.478;2022-10-16T11:33:25;1.95;;;1.40;;
8526;SDS011;4301;48.362;8.478;2022-10-16T11:35:59;2.22;;;1.50;;
8526;SDS011;4301;48.362;8.478;2022-10-16T11:38:32;4.40;;;1.38;;
8526;SDS011;4301;48.362;8.478;2022-10-16T11:41:08;2.75;;;1.23;;
8526;SDS011;4301;48.362;8.478;2022-10-16T11:43:42;1.42;;;1.40;;
8526;SDS011;4301;48.362;8.478;2022-10-16T11:46:15;2.38;;;1.55;;
8526;SDS011;4301;48.362;8.478;2022-10-16T11:48:47;3.50;;;1.58;;
8526;SDS011;4301;48.362;8.478;2022-10-16T11:51:20;1.50;;;1.40;;
8526;SDS011;4301;48.362;8.478;2022-10-16T11:53:53;1.50;;;1.40;;
8526;SDS011;4301;48.362;8.478;2022-10-16T11:56:29;2.35;;;1.70;;
8526;SDS011;4301;48.362;8.478;2022-10-16T11:59:02;2.97;;;1.50;;
8526;SDS011;4301;48.362;8.478;2022-10-16T12:01:36;4.00;;;1.50;;
8526;SDS011;4301;48.362;8.478;2022-10-16T12:04:19;3.25;;;1.77;;
8526;SDS011;4301;48.362;8.478;2022-10-16T12:06:55;3.60;;;1.50;;
8526;SDS011;4301;48.362;8.478;2022-10-16T12:09:29;1.48;;;1.42;;
8526;SDS011;4301;48.362;8.478;2022-10-16T12:11:59;3.80;;;1.40;;
8526;SDS011;4301;48.362;8.478;2022-10-16T12:20:14;2.25;;;1.70;;
8526;SDS011;4301;48.362;8.478;2022-10-16T12:22:47;5.50;;;1.52;;
8526;SDS011;4301;48.362;8.478;2022-10-16T12:25:20;5.32;;;1.70;;
8526;SDS011;4301;48.362;8.478;2022-10-16T12:28:01;2.33;;;1.45;;
8526;SDS011;4301;48.362;8.478;2022-10-16T12:30:31;2.22;;;1.50;;
8526;SDS011;4301;48.362;8.478;2022-10-16T12:33:00;2.38;;;1.50;;
8526;SDS011;4301;48.362;8.478;2022-10-16T12:35:30;2.50;;;1.60;;
8526;SDS011;4301;48.362;8.478;2022-10-16T12:38:12;1.63;;;1.52;;
8526;SDS011;4301;48.362;8.478;2022-10-16T12:40:43;4.35;;;1.40;;
8526;SDS011;4301;48.362;8.478;2022-10-16T12:43:23;5.70;;;1.48;;
8526;SDS011;4301;48.362;8.478;2022-10-16T12:46:02;1.60;;;1.50;;
8526;SDS011;4301;48.362;8.478;2022-10-16T12:48:31;2.05;;;1.70;;
8526;SDS011;4301;48.362;8.478;2022-10-16T12:51:09;3.60;;;2.03;;
8526;SDS011;4301;48.362;8.478;2022-10-16T12:53:36;5.50;;;1.77;;
8526;SDS011;4301;48.362;8.478;2022-10-16T12:56:04;1.63;;;1.52;;
8526;SDS011;4301;48.362;8.478;2022-10-16T12:58:51;2.85;;;1.70;;
8526;SDS011;4301;48.362;8.478;2022-10-16T13:01:31;2.05;;;1.55;;
8526;SDS011;4301;48.362;8.478;2022-10-16T13:04:11;1.98;;;1.83;;
8526;SDS011;4301;48.362;8.478;2022-10-16T13:06:51;1.70;;;1.60;;
8526;SDS011;4301;48.362;8.478;2022-10-16T13:09:31;3.03;;;1.60;;
8526;SDS011;4301;48.362;8.478;2022-10-16T13:12:11;2.63;;;1.67;;
8526;SDS011;4301;48.362;8.478;2022-10-16T13:14:58;8.50;;;1.60;;
8526;SDS011;4301;48.362;8.478;2022-10-16T13:17:34;4.28;;;1.80;;
8526;SDS011;4301;48.362;8.478;2022-10-16T13:20:11;6.45;;;1.77;;
8526;SDS011;4301;48.362;8.478;2022-10-16T13:22:47;4.15;;;1.70;;
8526;SDS011;4301;48.362;8.478;2022-10-16T13:25:23;2.55;;;1.88;;
8526;SDS011;4301;48.362;8.478;2022-10-16T13:27:59;4.65;;;1.70;;
8526;SDS011;4301;48.362;8.478;2022-10-16T13:30:29;2.10;;;1.60;;
8526;SDS011;4301;48.362;8.478;2022-10-16T13:32:59;5.15;;;1.63;;
8526;SDS011;4301;48.362;8.478;2022-10-16T13:35:29;3.45;;;1.60;;
8526;SDS011;4301;48.362;8.478;2022-10-16T13:40:51;2.30;;;1.63;;
8526;SDS011;4301;48.362;8.478;2022-10-16T13:43:20;6.00;;;1.45;;
8526;SDS011;4301;48.362;8.478;2022-10-16T13:45:56;2.17;;;1.80;;
8526;SDS011;4301;48.362;8.478;2022-10-16T13:48:25;2.70;;;1.65;;
8526;SDS011;4301;48.362;8.478;2022-10-16T13:51:06;2.03;;;1.40;;
8526;SDS011;4301;48.362;8.478;2022-10-16T13:53:38;3.55;;;1.52;;
8526;SDS011;4301;48.362;8.478;2022-10-16T13:56:07;2.25;;;1.52;;
8526;SDS011;4301;48.362;8.478;2022-10-16T13:58:37;5.97;;;1.85;;
8526;SDS011;4301;48.362;8.478;2022-10-16T14:01:05;2.88;;;1.60;;
8526;SDS011;4301;48.362;8.478;2022-10-16T14:03:44;4.15;;;1.90;;
8526;SDS011;4301;48.362;8.478;2022-10-16T14:06:13;3.05;;;1.70;;
8526;SDS011;4301;48.362;8.478;2022-10-16T14:08:43;3.40;;;1.67;;
8526;SDS011;4301;48.362;8.478;2022-10-16T14:11:13;2.83;;;1.52;;
8526;SDS011;4301;48.362;8.478;2022-10-16T14:13:47;3.85;;;1.67;;
8526;SDS011;4301;48.362;8.478;2022-10-16T14:16:17;3.25;;;1.60;;
8526;SDS011;4301;48.362;8.478;2022-10-16T14:18:48;1.58;;;1.48;;
8526;SDS011;4301;48.362;8.478;2022-10-16T14:21:21;3.88;;;1.80;;
8526;SDS011;4301;48.362;8.478;2022-10-16T14:23:49;1.73;;;1.63;;
8526;SDS011;4301;48.362;8.478;2022-10-16T14:26:17;4.55;;;1.95;;
8526;SDS011;4301;48.362;8.478;2022-10-16T14:29:09;2.70;;;1.55;;
8526;SDS011;4301;48.362;8.478;2022-10-16T14:31:38;5.40;;;1.85;;
8526;SDS011;4301;48.362;8.478;2022-10-16T14:36:52;2.88;;;1.48;;
8526;SDS011;4301;48.362;8.478;2022-10-16T14:39:20;3.35;;;1.67;;
8526;SDS011;4301;48.362;8.478;2022-10-16T14:41:49;1.92;;;1.50;;
8526;SDS011;4301;48.362;8.478;2022-10-16T14:44:18;2.40;;;1.58;;
8526;SDS011;4301;48.362;8.478;2022-10-16T14:46:52;4.70;;;1.58;;
8526;SDS011;4301;48.362;8.478;2022-10-16T14:49:19;1.60;;;1.50;;
8526;SDS011;4301;48.362;8.478;2022-10-16T14:51:48;6.13;;;1.90;;
8526;SDS011;4301;48.362;8.478;2022-10-16T14:54:15;5.22;;;2.00;;
8526;SDS011;4301;48.362;8.478;2022-10-16T14:56:46;5.03;;;1.80;;
8526;SDS011;4301;48.362;8.478;2022-10-16T14:59:16;5.95;;;1.70;;
8526;SDS011;4301;48.362;8.478;2022-10-16T15:01:47;2.42;;;1.50;;
8526;SDS011;4301;48.362;8.478;2022-10-16T15:04:15;3.08;;;1.60;;
8526;SDS011;4301;48.362;8.478;2022-10-16T15:06:43;6.90;;;1.95;;
8526;SDS011;4301;48.362;8.478;2022-10-16T15:09:11;2.13;;;1.55;;
8526;SDS011;4301;48.362;8.478;2022-10-16T15:11:38;3.20;;;1.60;;
8526;SDS011;4301;48.362;8.478;2022-10-16T15:14:05;4.25;;;2.00;;
8526;SDS011;4301;48.362;8.478;2022-10-16T15:16:33;4.57;;;2.20;;
8526;SDS011;4301;48.362;8.478;2022-10-16T15:19:00;9.50;;;2.03;;
8526;SDS011;4301;48.362;8.478;2022-10-16T15:21:28;5.28;;;1.83;;
8526;SDS011;4301;48.362;8.478;2022-10-16T15:23:57;7.32;;;2.28;;
8526;SDS011;4301;48.362;8.478;2022-10-16T15:26:25;2.80;;;1.80;;
8526;SDS011;4301;48.362;8.478;2022-10-16T15:28:54;2.28;;;1.83;;
8526;SDS011;4301;48.362;8.478;2022-10-16T15:31:23;4.85;;;1.90;;
8526;SDS011;4301;48.362;8.478;2022-10-16T15:33:52;3.45;;;1.60;;
8526;SDS011;4301;48.362;8.478;2022-10-16T15:36:26;2.72;;;1.83;;
8526;SDS011;4301;48.362;8.478;2022-10-16T15:38:54;5.20;;;1.92;;
8526;SDS011;4301;48.362;8.478;2022-10-16T15:41:21;11.13;;;2.30;;
8526;SDS011;4301;48.362;8.478;2022-10-16T15:43:49;6.57;;;2.08;;
8526;SDS011;4301;48.362;8.478;2022-10-16T15:46:17;5.57;;;2.17;;
8526;SDS011;4301;48.362;8.478;2022-10-16T15:48:45;7.78;;;2.30;;